createdAt,value
2023-04-30T00:01:04.184Z,2.13
2023-04-30T00:03:32.489Z,3.00
2023-04-30T00:06:00.653Z,2.55
2023-04-30T00:08:30.963Z,3.30
2023-04-30T00:10:59.208Z,2.35
2023-04-30T00:13:27.344Z,2.78
2023-04-30T00:15:55.792Z,3.40
2023-04-30T00:18:23.856Z,3.92
2023-04-30T00:20:53.564Z,2.95
2023-04-30T00:23:22.014Z,2.70
2023-04-30T00:25:53.507Z,2.50
2023-04-30T00:28:22.115Z,2.70
2023-04-30T00:30:50.663Z,3.15
2023-04-30T00:33:19.101Z,2.65
2023-04-30T00:35:47.752Z,2.53
2023-04-30T00:38:16.829Z,3.72
2023-04-30T00:40:48.257Z,3.38
2023-04-30T00:43:17.757Z,3.00
2023-04-30T00:45:45.834Z,3.78
2023-04-30T00:48:14.197Z,2.88
2023-04-30T00:50:42.843Z,2.38
2023-04-30T00:53:13.790Z,3.05
2023-04-30T00:55:45.656Z,3.88
2023-04-30T00:58:14.345Z,3.65
2023-04-30T01:00:47.216Z,2.70
2023-04-30T01:03:16.274Z,2.80
2023-04-30T01:05:46.926Z,3.47
2023-04-30T01:08:17.594Z,5.20
2023-04-30T01:10:53.351Z,3.15
2023-04-30T01:13:29.943Z,2.78
2023-04-30T01:16:05.267Z,3.13
2023-04-30T01:18:40.281Z,3.10
2023-04-30T01:21:09.451Z,2.90
2023-04-30T01:23:59.666Z,7.10
2023-04-30T01:26:46.739Z,2.42
2023-04-30T01:29:21.642Z,2.47
2023-04-30T01:31:50.098Z,4.70
2023-04-30T01:34:18.381Z,2.55
2023-04-30T01:37:02.265Z,4.65
2023-04-30T01:39:41.134Z,2.83
2023-04-30T01:42:17.685Z,3.65
2023-04-30T01:45:02.565Z,2.38
2023-04-30T01:47:40.015Z,4.63
2023-04-30T01:50:21.800Z,2.63
2023-04-30T01:52:54.430Z,2.75
2023-04-30T01:55:29.782Z,2.40
2023-04-30T01:57:59.568Z,2.80
2023-04-30T02:00:31.630Z,2.92
2023-04-30T02:03:00.728Z,6.28
2023-04-30T02:05:32.130Z,2.78
2023-04-30T02:08:01.727Z,2.75
2023-04-30T02:10:30.710Z,3.50
2023-04-30T02:12:58.928Z,3.15
2023-04-30T02:15:29.680Z,3.38
2023-04-30T02:17:58.170Z,2.63
2023-04-30T02:20:26.498Z,3.22
2023-04-30T02:22:56.993Z,2.42
2023-04-30T02:25:25.102Z,3.20
2023-04-30T02:27:53.302Z,2.60
2023-04-30T02:30:21.461Z,3.38
2023-04-30T02:32:51.102Z,2.85
2023-04-30T02:35:21.755Z,2.92
2023-04-30T02:37:52.337Z,3.13
2023-04-30T02:40:20.620Z,3.72
2023-04-30T02:42:49.978Z,4.28
2023-04-30T02:45:18.048Z,3.15
2023-04-30T02:47:46.284Z,3.33
2023-04-30T02:50:16.248Z,3.22
2023-04-30T02:52:45.647Z,2.25
2023-04-30T02:55:14.131Z,2.58
2023-04-30T02:57:42.285Z,4.53
2023-04-30T03:00:11.789Z,2.65
2023-04-30T03:02:40.299Z,3.05
2023-04-30T03:05:09.142Z,3.53
2023-04-30T03:07:38.876Z,2.72
2023-04-30T03:10:11.269Z,3.20
2023-04-30T03:12:39.763Z,3.90
2023-04-30T03:15:09.480Z,3.78
2023-04-30T03:17:37.538Z,3.97
2023-04-30T03:20:07.243Z,2.67
2023-04-30T03:22:35.562Z,3.53
2023-04-30T03:25:05.495Z,2.55
2023-04-30T03:27:33.851Z,2.97
2023-04-30T03:30:02.210Z,2.35
2023-04-30T03:32:30.307Z,2.55
2023-04-30T03:34:58.576Z,3.60
2023-04-30T03:37:28.388Z,3.28
2023-04-30T03:39:56.893Z,3.15
2023-04-30T03:42:27.389Z,6.22
2023-04-30T03:44:57.683Z,3.40
2023-04-30T03:47:28.171Z,2.97
2023-04-30T03:49:56.508Z,3.90
2023-04-30T03:52:26.662Z,3.55
2023-04-30T03:54:55.164Z,3.38
2023-04-30T03:57:23.715Z,2.25
2023-04-30T03:59:53.662Z,2.67
2023-04-30T04:02:22.308Z,4.03
2023-04-30T04:04:51.245Z,3.25
2023-04-30T04:07:19.983Z,3.70
2023-04-30T04:09:48.313Z,2.30
2023-04-30T04:12:16.637Z,2.55
2023-04-30T04:14:50.232Z,3.92
2023-04-30T04:17:21.958Z,2.78
2023-04-30T04:19:53.170Z,3.65
2023-04-30T04:22:22.897Z,3.28
2023-04-30T04:24:54.574Z,3.35
2023-04-30T04:27:25.402Z,2.72
2023-04-30T04:29:55.142Z,4.15
2023-04-30T04:34:47.387Z,2.85
2023-04-30T04:37:15.938Z,3.67
2023-04-30T04:39:45.095Z,3.72
2023-04-30T04:42:13.618Z,3.60
2023-04-30T04:44:42.610Z,3.72
2023-04-30T04:47:13.853Z,3.75
2023-04-30T04:49:48.820Z,3.63
2023-04-30T04:52:17.010Z,4.50
2023-04-30T04:54:45.263Z,5.55
2023-04-30T04:57:15.975Z,6.43
2023-04-30T04:59:44.171Z,11.25
2023-04-30T05:02:12.332Z,4.50
2023-04-30T05:04:40.539Z,5.03
2023-04-30T05:07:10.134Z,5.05
2023-04-30T05:09:38.353Z,3.60
2023-04-30T05:12:06.933Z,4.38
2023-04-30T05:14:35.779Z,3.97
2023-04-30T05:17:03.911Z,3.85
2023-04-30T05:19:32.119Z,3.05
2023-04-30T05:22:01.427Z,3.53
2023-04-30T05:24:31.443Z,3.55
2023-04-30T05:26:59.614Z,4.85
2023-04-30T05:29:27.661Z,3.40
2023-04-30T05:31:56.171Z,3.00
2023-04-30T05:34:24.599Z,4.63
2023-04-30T05:36:55.979Z,2.33
2023-04-30T05:39:27.154Z,6.45
2023-04-30T05:41:56.831Z,3.95
2023-04-30T05:44:24.925Z,4.15
2023-04-30T05:46:53.181Z,3.25
2023-04-30T05:49:21.334Z,3.78
2023-04-30T05:51:49.581Z,4.20
2023-04-30T05:54:17.888Z,3.72
2023-04-30T05:56:48.592Z,3.78
2023-04-30T05:59:18.621Z,2.42
2023-04-30T06:01:46.954Z,3.00
2023-04-30T06:04:15.133Z,3.22
2023-04-30T06:06:46.206Z,2.35
2023-04-30T06:09:16.562Z,3.05
2023-04-30T06:11:45.919Z,6.82
2023-04-30T06:14:16.415Z,2.90
2023-04-30T06:16:46.927Z,3.13
2023-04-30T06:19:17.609Z,2.95
2023-04-30T06:21:45.949Z,4.20
2023-04-30T06:24:14.153Z,3.10
2023-04-30T06:26:42.731Z,3.17
2023-04-30T06:29:10.982Z,2.95
2023-04-30T06:31:39.581Z,2.75
2023-04-30T06:34:09.144Z,3.05
2023-04-30T06:36:37.491Z,2.70
2023-04-30T06:39:06.789Z,2.97
2023-04-30T06:41:34.858Z,2.28
2023-04-30T06:44:10.006Z,3.70
2023-04-30T06:46:38.402Z,2.17
2023-04-30T06:49:10.392Z,2.88
2023-04-30T06:51:38.673Z,2.53
2023-04-30T06:54:07.374Z,2.47
2023-04-30T06:59:24.538Z,2.90
2023-04-30T07:01:53.556Z,2.22
2023-04-30T07:04:26.372Z,1.95
2023-04-30T07:06:55.027Z,1.75
2023-04-30T07:09:23.217Z,2.63
2023-04-30T07:11:51.904Z,3.00
2023-04-30T07:14:20.067Z,2.38
2023-04-30T07:16:50.923Z,1.70
2023-04-30T07:19:23.498Z,2.13
2023-04-30T07:21:55.210Z,2.15
2023-04-30T07:24:23.273Z,1.90
2023-04-30T07:26:51.468Z,3.42
2023-04-30T07:29:22.596Z,1.35
2023-04-30T07:31:51.761Z,2.20
2023-04-30T07:34:20.124Z,1.60
2023-04-30T07:36:49.465Z,2.15
2023-04-30T07:39:18.948Z,1.60
2023-04-30T07:41:47.255Z,1.83
2023-04-30T07:44:15.609Z,6.30
2023-04-30T07:46:44.077Z,1.23
2023-04-30T07:49:14.590Z,1.95
2023-04-30T07:51:43.018Z,1.50
2023-04-30T07:54:11.215Z,1.48
2023-04-30T07:56:40.838Z,1.58
2023-04-30T07:59:08.896Z,0.98
2023-04-30T08:01:37.373Z,1.67
2023-04-30T08:04:07.235Z,1.55
2023-04-30T08:06:35.564Z,1.58
2023-04-30T08:09:04.787Z,1.88
2023-04-30T08:11:33.067Z,0.80
2023-04-30T08:14:03.322Z,1.15
2023-04-30T08:16:31.689Z,1.42
2023-04-30T08:19:00.594Z,2.78
2023-04-30T08:21:29.107Z,3.60
2023-04-30T08:23:57.392Z,0.75
2023-04-30T08:26:27.014Z,1.88
2023-04-30T08:28:55.044Z,0.80
2023-04-30T08:31:24.778Z,1.00
2023-04-30T08:33:53.057Z,1.58
2023-04-30T08:36:21.268Z,0.63
2023-04-30T08:38:49.523Z,0.60
2023-04-30T08:41:17.705Z,0.60
2023-04-30T08:43:45.886Z,0.80
2023-04-30T08:46:14.387Z,0.75
2023-04-30T08:48:45.408Z,0.50
2023-04-30T08:51:14.103Z,1.33
2023-04-30T08:53:45.634Z,0.77
2023-04-30T08:56:13.772Z,0.82
2023-04-30T08:58:43.363Z,0.77
2023-04-30T09:01:11.794Z,0.60
2023-04-30T09:03:40.291Z,0.85
2023-04-30T09:06:09.709Z,0.70
2023-04-30T09:08:47.015Z,2.38
2023-04-30T09:11:23.124Z,1.02
2023-04-30T09:13:53.743Z,0.65
2023-04-30T09:16:25.603Z,1.23
2023-04-30T09:18:54.731Z,0.90
2023-04-30T09:21:35.099Z,0.75
2023-04-30T09:24:07.011Z,0.70
2023-04-30T09:26:40.410Z,0.70
2023-04-30T09:29:08.920Z,2.55
2023-04-30T09:31:40.705Z,0.85
2023-04-30T09:35:47.245Z,0.50
2023-04-30T09:38:29.318Z,0.98
2023-04-30T09:41:00.049Z,2.75
2023-04-30T09:43:28.482Z,1.15
2023-04-30T09:46:00.504Z,0.63
2023-04-30T09:48:29.731Z,0.73
2023-04-30T09:50:59.680Z,0.52
2023-04-30T09:53:29.154Z,0.50
2023-04-30T09:56:03.386Z,0.82
2023-04-30T09:58:36.864Z,0.88
2023-04-30T10:01:07.888Z,0.60
2023-04-30T10:03:36.677Z,2.28
2023-04-30T10:06:12.350Z,0.90
2023-04-30T10:08:43.293Z,0.50
2023-04-30T10:11:17.984Z,2.58
2023-04-30T10:13:52.696Z,0.52
2023-04-30T10:16:32.768Z,0.60
2023-04-30T10:19:05.751Z,0.55
2023-04-30T10:21:36.578Z,0.63
2023-04-30T10:24:08.250Z,0.47
2023-04-30T10:26:40.216Z,0.40
2023-04-30T10:29:11.507Z,0.43
2023-04-30T10:31:49.648Z,0.95
2023-04-30T10:34:30.303Z,0.75
2023-04-30T10:37:10.756Z,0.60
2023-04-30T10:39:43.243Z,0.50
2023-04-30T10:44:58.502Z,0.38
2023-04-30T10:47:31.139Z,0.40
2023-04-30T10:50:09.901Z,0.50
2023-04-30T10:52:47.742Z,0.55
2023-04-30T10:55:21.772Z,0.47
2023-04-30T10:57:55.710Z,0.30
2023-04-30T11:00:28.527Z,0.50
2023-04-30T11:02:59.672Z,0.45
2023-04-30T11:05:39.459Z,0.35
2023-04-30T11:08:12.951Z,0.47
2023-04-30T11:11:00.132Z,0.40
2023-04-30T11:13:29.427Z,0.40
2023-04-30T11:16:04.721Z,1.40
2023-04-30T11:18:33.356Z,0.40
2023-04-30T11:21:05.726Z,1.40
2023-04-30T11:23:41.754Z,0.55
2023-04-30T11:26:12.132Z,0.22
2023-04-30T11:28:40.597Z,0.30
2023-04-30T11:31:08.965Z,0.17
2023-04-30T11:33:38.348Z,0.77
2023-04-30T11:36:11.125Z,0.55
2023-04-30T11:38:43.656Z,0.47
2023-04-30T11:41:13.961Z,0.30
2023-04-30T11:43:52.963Z,0.30
2023-04-30T11:46:21.366Z,0.38
2023-04-30T11:48:50.126Z,0.30
2023-04-30T11:51:19.915Z,0.68
2023-04-30T11:53:51.701Z,0.20
2023-04-30T11:56:20.730Z,0.43
2023-04-30T11:58:49.655Z,0.40
2023-04-30T12:01:19.917Z,0.60
2023-04-30T12:03:53.623Z,0.40
2023-04-30T12:06:27.581Z,5.78
2023-04-30T12:08:59.075Z,0.47
2023-04-30T12:11:29.153Z,0.25
2023-04-30T12:14:07.558Z,0.28
2023-04-30T12:16:44.406Z,0.40
2023-04-30T12:19:14.041Z,0.40
2023-04-30T12:21:46.603Z,0.28
2023-04-30T12:24:17.828Z,0.35
2023-04-30T12:26:46.733Z,0.52
2023-04-30T12:29:18.019Z,0.15
2023-04-30T12:31:47.021Z,0.40
2023-04-30T12:34:20.046Z,0.30
2023-04-30T12:36:49.206Z,0.30
2023-04-30T12:39:19.296Z,0.20
2023-04-30T12:41:48.967Z,0.90
2023-04-30T12:44:18.653Z,0.35
2023-04-30T12:46:47.658Z,0.93
2023-04-30T12:49:25.209Z,0.30
2023-04-30T12:51:57.955Z,0.57
2023-04-30T12:54:28.885Z,0.50
2023-04-30T12:57:04.829Z,2.30
2023-04-30T12:59:34.878Z,0.35
2023-04-30T13:02:11.465Z,0.20
2023-04-30T13:04:40.149Z,0.50
2023-04-30T13:07:08.578Z,0.43
2023-04-30T13:09:39.223Z,0.45
2023-04-30T13:12:07.548Z,1.35
2023-04-30T13:14:37.805Z,0.60
2023-04-30T13:17:07.362Z,0.30
2023-04-30T13:19:37.590Z,0.40
2023-04-30T13:22:05.697Z,0.57
2023-04-30T13:24:34.018Z,0.55
2023-04-30T13:27:04.907Z,5.35
2023-04-30T13:29:33.205Z,1.00
2023-04-30T13:32:01.396Z,0.32
2023-04-30T13:34:29.946Z,0.40
2023-04-30T13:36:58.207Z,0.98
2023-04-30T13:39:26.354Z,0.60
2023-04-30T13:41:55.036Z,0.40
2023-04-30T13:44:24.717Z,0.20
2023-04-30T13:46:56.037Z,0.50
2023-04-30T13:49:24.310Z,0.20
2023-04-30T13:51:52.637Z,0.30
2023-04-30T13:54:23.418Z,0.40
2023-04-30T13:56:52.296Z,0.20
2023-04-30T13:59:20.539Z,0.60
2023-04-30T14:01:52.750Z,0.25
2023-04-30T14:04:21.149Z,0.38
2023-04-30T14:06:49.520Z,0.32
2023-04-30T14:09:18.397Z,0.20
2023-04-30T14:11:51.563Z,0.80
2023-04-30T14:14:19.720Z,0.30
2023-04-30T14:16:47.898Z,1.23
2023-04-30T14:19:17.622Z,0.20
2023-04-30T14:21:46.721Z,0.25
2023-04-30T14:24:15.859Z,0.30
2023-04-30T14:26:45.623Z,0.20
2023-04-30T14:29:13.782Z,0.43
2023-04-30T14:31:42.183Z,0.25
2023-04-30T14:36:52.787Z,1.75
2023-04-30T14:39:23.633Z,0.32
2023-04-30T14:41:53.451Z,0.20
2023-04-30T14:44:24.009Z,0.40
2023-04-30T14:46:52.255Z,0.22
2023-04-30T14:49:22.536Z,0.35
2023-04-30T14:51:52.278Z,0.30
2023-04-30T14:54:23.420Z,0.20
2023-04-30T14:56:52.241Z,0.20
2023-04-30T14:59:20.471Z,0.25
2023-04-30T15:01:51.141Z,0.30
2023-04-30T15:04:19.916Z,0.20
2023-04-30T15:09:24.697Z,0.20
2023-04-30T15:11:52.950Z,0.40
2023-04-30T15:14:23.990Z,0.20
2023-04-30T15:16:54.626Z,0.20
2023-04-30T15:19:22.802Z,0.40
2023-04-30T15:21:51.306Z,0.20
2023-04-30T15:24:23.673Z,0.40
2023-04-30T15:26:54.503Z,0.40
2023-04-30T15:29:24.076Z,0.30
2023-04-30T15:31:54.079Z,0.43
2023-04-30T15:34:24.037Z,0.40
2023-04-30T15:36:55.256Z,1.73
2023-04-30T15:39:27.415Z,0.30
2023-04-30T15:41:55.596Z,0.20
2023-04-30T15:44:23.856Z,0.40
2023-04-30T15:46:52.565Z,0.30
2023-04-30T15:49:21.214Z,0.20
2023-04-30T15:51:49.335Z,0.30
2023-04-30T15:54:19.662Z,0.30
2023-04-30T15:56:51.513Z,0.20
2023-04-30T15:59:20.029Z,0.50
2023-04-30T16:01:48.204Z,0.35
2023-04-30T16:04:16.369Z,1.00
2023-04-30T16:06:44.984Z,2.65
2023-04-30T16:09:19.634Z,0.50
2023-04-30T16:11:48.510Z,0.30
2023-04-30T16:14:18.032Z,0.40
2023-04-30T16:16:46.386Z,2.80
2023-04-30T16:19:14.929Z,1.48
2023-04-30T16:21:46.241Z,0.95
2023-04-30T16:24:16.305Z,0.68
2023-04-30T16:26:44.401Z,0.50
2023-04-30T16:29:12.688Z,0.50
2023-04-30T16:31:42.877Z,0.50
2023-04-30T16:34:12.317Z,0.43
2023-04-30T16:36:42.860Z,0.40
2023-04-30T16:39:11.203Z,1.38
2023-04-30T16:41:42.985Z,0.60
2023-04-30T16:44:11.528Z,0.85
2023-04-30T16:46:39.768Z,0.93
2023-04-30T16:49:09.274Z,0.45
2023-04-30T16:51:37.290Z,1.08
2023-04-30T16:54:05.421Z,1.85
2023-04-30T16:56:34.178Z,0.47
2023-04-30T16:59:02.461Z,0.75
2023-04-30T17:01:32.222Z,0.28
2023-04-30T17:04:00.618Z,0.25
2023-04-30T17:06:30.345Z,0.28
2023-04-30T17:08:59.363Z,0.35
2023-04-30T17:11:27.838Z,0.35
2023-04-30T17:13:56.085Z,0.30
2023-04-30T17:16:27.194Z,0.30
2023-04-30T17:18:55.485Z,0.40
2023-04-30T17:21:23.857Z,0.20
2023-04-30T17:23:56.827Z,0.57
2023-04-30T17:26:25.092Z,0.70
2023-04-30T17:28:53.413Z,0.85
2023-04-30T17:31:24.257Z,0.85
2023-04-30T17:33:55.156Z,0.40
2023-04-30T17:36:24.692Z,1.13
2023-04-30T17:38:53.026Z,0.63
2023-04-30T17:41:26.438Z,0.65
2023-04-30T17:46:28.030Z,0.30
2023-04-30T17:49:01.610Z,0.30
2023-04-30T17:51:31.729Z,0.30
2023-04-30T17:54:00.272Z,0.20
2023-04-30T17:56:31.551Z,0.90
2023-04-30T17:59:00.867Z,1.00
2023-04-30T18:01:29.283Z,0.47
2023-04-30T18:04:00.375Z,0.38
2023-04-30T18:06:29.257Z,0.98
2023-04-30T18:09:01.616Z,0.55
2023-04-30T18:11:31.266Z,0.30
2023-04-30T18:13:59.464Z,0.30
2023-04-30T18:16:27.614Z,0.40
2023-04-30T18:18:58.293Z,0.68
2023-04-30T18:21:27.057Z,0.40
2023-04-30T18:23:55.814Z,0.47
2023-04-30T18:26:24.717Z,0.30
2023-04-30T18:28:54.241Z,0.40
2023-04-30T18:31:22.857Z,1.13
2023-04-30T18:33:51.307Z,0.82
2023-04-30T18:36:19.422Z,0.80
2023-04-30T18:38:47.836Z,0.20
2023-04-30T18:41:16.122Z,2.72
2023-04-30T18:43:45.179Z,0.20
2023-04-30T18:46:15.141Z,0.43
2023-04-30T18:48:43.412Z,0.30
2023-04-30T18:51:11.516Z,0.60
2023-04-30T18:53:40.812Z,0.22
2023-04-30T18:56:11.965Z,0.35
2023-04-30T18:58:47.748Z,0.38
2023-04-30T19:01:21.634Z,0.70
2023-04-30T19:03:49.953Z,0.52
2023-04-30T19:06:18.737Z,0.38
2023-04-30T19:08:47.479Z,1.83
2023-04-30T19:11:15.872Z,0.50
2023-04-30T19:13:43.943Z,0.35
2023-04-30T19:16:12.199Z,3.50
2023-04-30T19:18:41.810Z,0.73
2023-04-30T19:21:12.949Z,0.40
2023-04-30T19:23:43.399Z,0.98
2023-04-30T19:26:13.802Z,0.65
2023-04-30T19:28:44.289Z,0.98
2023-04-30T19:31:12.697Z,1.13
2023-04-30T19:33:43.207Z,2.03
2023-04-30T19:37:54.635Z,0.55
2023-04-30T19:40:23.181Z,1.00
2023-04-30T19:42:52.489Z,0.82
2023-04-30T19:45:22.754Z,0.47
2023-04-30T19:47:53.354Z,0.50
2023-04-30T19:50:21.741Z,4.18
2023-04-30T19:52:52.224Z,0.50
2023-04-30T19:55:22.023Z,3.05
2023-04-30T19:57:50.204Z,3.47
2023-04-30T20:00:18.629Z,1.35
2023-04-30T20:02:47.718Z,0.38
2023-04-30T20:05:16.615Z,0.70
2023-04-30T20:07:44.798Z,2.40
2023-04-30T20:10:15.262Z,0.70
2023-04-30T20:12:44.906Z,0.70
2023-04-30T20:15:16.808Z,0.82
2023-04-30T20:17:46.045Z,0.38
2023-04-30T20:20:15.135Z,0.50
2023-04-30T20:22:43.401Z,0.52
2023-04-30T20:25:11.529Z,0.60
2023-04-30T20:27:40.056Z,1.55
2023-04-30T20:30:10.983Z,0.70
2023-04-30T20:32:40.541Z,0.73
2023-04-30T20:35:09.662Z,0.52
2023-04-30T20:37:38.734Z,0.98
2023-04-30T20:40:09.073Z,0.55
2023-04-30T20:42:38.731Z,0.52
2023-04-30T20:45:10.303Z,0.60
2023-04-30T20:47:40.339Z,0.65
2023-04-30T20:50:10.083Z,0.52
2023-04-30T20:52:38.930Z,0.60
2023-04-30T20:55:07.508Z,0.60
2023-04-30T20:57:35.916Z,0.47
2023-04-30T21:00:06.246Z,0.75
2023-04-30T21:02:37.435Z,1.33
2023-04-30T21:05:06.927Z,0.95
2023-04-30T21:07:35.977Z,0.60
2023-04-30T21:10:06.660Z,1.30
2023-04-30T21:12:35.443Z,0.98
2023-04-30T21:15:04.448Z,0.65
2023-04-30T21:17:33.020Z,0.82
2023-04-30T21:20:04.049Z,0.73
2023-04-30T21:22:33.332Z,0.95
2023-04-30T21:25:04.180Z,1.30
2023-04-30T21:27:34.160Z,0.43
2023-04-30T21:30:02.488Z,0.80
2023-04-30T21:32:31.623Z,0.70
2023-04-30T21:37:54.450Z,0.80
2023-04-30T21:40:22.715Z,1.70
2023-04-30T21:42:52.665Z,2.15
2023-04-30T21:45:21.345Z,0.70
2023-04-30T21:47:49.672Z,0.68
2023-04-30T21:50:19.592Z,0.40
2023-04-30T21:52:47.971Z,0.70
2023-04-30T21:55:16.551Z,1.02
2023-04-30T21:57:46.565Z,0.95
2023-04-30T22:00:17.396Z,0.65
2023-04-30T22:02:52.159Z,1.02
2023-04-30T22:05:22.234Z,0.73
2023-04-30T22:07:50.615Z,0.68
2023-04-30T22:10:20.963Z,8.50
2023-04-30T22:12:51.698Z,0.90
2023-04-30T22:15:19.840Z,0.63
2023-04-30T22:17:47.995Z,0.60
2023-04-30T22:20:16.539Z,0.80
2023-04-30T22:22:47.116Z,0.75
2023-04-30T22:25:18.842Z,0.98
2023-04-30T22:27:48.476Z,0.60
2023-04-30T22:30:17.497Z,0.93
2023-04-30T22:32:46.694Z,0.77
2023-04-30T22:35:39.716Z,1.13
2023-04-30T22:38:09.438Z,0.98
2023-04-30T22:40:40.448Z,1.95
2023-04-30T22:43:11.240Z,0.90
2023-04-30T22:45:40.680Z,0.85
2023-04-30T22:48:10.884Z,1.58
2023-04-30T22:50:42.394Z,7.75
2023-04-30T22:53:13.358Z,0.43
2023-04-30T22:55:42.242Z,0.70
2023-04-30T22:58:10.802Z,1.27
2023-04-30T23:00:41.419Z,0.77
2023-04-30T23:03:10.039Z,0.90
2023-04-30T23:05:38.879Z,1.20
2023-04-30T23:08:07.577Z,3.13
2023-04-30T23:10:37.678Z,0.73
2023-04-30T23:13:06.071Z,1.30
2023-04-30T23:15:34.419Z,1.30
2023-04-30T23:18:05.316Z,0.60
2023-04-30T23:20:33.757Z,0.95
2023-04-30T23:23:04.659Z,0.77
2023-04-30T23:25:33.816Z,0.90
2023-04-30T23:28:04.211Z,0.70
2023-04-30T23:30:32.632Z,0.60
2023-04-30T23:33:01.001Z,0.88
2023-04-30T23:35:29.299Z,0.73
2023-04-30T23:37:59.650Z,0.40
2023-04-30T23:40:28.869Z,0.68
2023-04-30T23:42:57.608Z,0.65
2023-04-30T23:45:27.502Z,0.63
2023-04-30T23:47:55.931Z,1.05
2023-04-30T23:50:24.108Z,0.40
2023-04-30T23:52:52.464Z,0.68
2023-04-30T23:55:21.085Z,1.20
2023-04-30T23:57:49.488Z,0.82
